sensor_id;sensor_type;location;lat;lon;timestamp;pressure;altitude;pressure_sealevel;temperature;humidity
13080;BME280;6606;49.154;9.280;2023-05-25T00:01:10;100121.47;;;9.29;100.00
13080;BME280;6606;49.154;9.280;2023-05-25T00:03:52;100119.25;;;9.40;100.00
13080;BME280;6606;49.154;9.280;2023-05-25T00:06:36;100114.03;;;9.39;100.00
13080;BME280;6606;49.154;9.280;2023-05-25T00:09:20;100113.25;;;9.37;100.00
13080;BME280;6606;49.154;9.280;2023-05-25T00:12:02;100117.47;;;9.41;100.00
13080;BME280;6606;49.154;9.280;2023-05-25T00:14:45;100119.31;;;9.39;100.00
13080;BME280;6606;49.154;9.280;2023-05-25T00:17:28;100113.31;;;9.34;100.00
13080;BME280;6606;49.154;9.280;2023-05-25T00:20:11;100112.56;;;9.32;100.00
13080;BME280;6606;49.154;9.280;2023-05-25T00:22:54;100110.69;;;9.34;100.00
13080;BME280;6606;49.154;9.280;2023-05-25T00:25:36;100115.06;;;9.35;100.00
13080;BME280;6606;49.154;9.280;2023-05-25T00:28:18;100111.66;;;9.31;100.00
13080;BME280;6606;49.154;9.280;2023-05-25T00:30:59;100113.81;;;9.21;100.00
13080;BME280;6606;49.154;9.280;2023-05-25T00:33:43;100093.34;;;9.27;100.00
13080;BME280;6606;49.154;9.280;2023-05-25T00:36:25;100096.69;;;9.32;100.00
13080;BME280;6606;49.154;9.280;2023-05-25T00:39:06;100100.41;;;9.26;100.00
13080;BME280;6606;49.154;9.280;2023-05-25T00:41:48;100110.00;;;9.29;100.00
13080;BME280;6606;49.154;9.280;2023-05-25T00:44:30;100109.09;;;9.30;100.00
13080;BME280;6606;49.154;9.280;2023-05-25T00:47:12;100114.25;;;9.33;100.00
13080;BME280;6606;49.154;9.280;2023-05-25T00:49:56;100104.78;;;9.27;100.00
13080;BME280;6606;49.154;9.280;2023-05-25T00:52:39;100103.00;;;9.28;100.00
13080;BME280;6606;49.154;9.280;2023-05-25T00:55:21;100106.50;;;9.28;100.00
13080;BME280;6606;49.154;9.280;2023-05-25T00:58:06;100106.56;;;9.27;100.00
13080;BME280;6606;49.154;9.280;2023-05-25T01:00:49;100109.91;;;9.32;100.00
13080;BME280;6606;49.154;9.280;2023-05-25T01:03:34;100104.03;;;9.23;100.00
13080;BME280;6606;49.154;9.280;2023-05-25T01:06:19;100110.41;;;9.18;100.00
13080;BME280;6606;49.154;9.280;2023-05-25T01:09:03;100114.50;;;9.03;100.00
13080;BME280;6606;49.154;9.280;2023-05-25T01:11:49;100102.19;;;9.02;100.00
13080;BME280;6606;49.154;9.280;2023-05-25T01:14:32;100107.38;;;9.05;100.00
13080;BME280;6606;49.154;9.280;2023-05-25T01:17:15;100108.56;;;8.96;100.00
13080;BME280;6606;49.154;9.280;2023-05-25T01:19:59;100107.69;;;8.96;100.00
13080;BME280;6606;49.154;9.280;2023-05-25T01:22:47;100104.03;;;9.00;100.00
13080;BME280;6606;49.154;9.280;2023-05-25T01:25:36;100092.81;;;9.17;100.00
13080;BME280;6606;49.154;9.280;2023-05-25T01:28:23;100092.78;;;9.18;100.00
13080;BME280;6606;49.154;9.280;2023-05-25T01:31:07;100091.44;;;9.30;100.00
13080;BME280;6606;49.154;9.280;2023-05-25T01:33:50;100094.25;;;9.25;100.00
13080;BME280;6606;49.154;9.280;2023-05-25T01:36:32;100081.38;;;9.40;100.00
13080;BME280;6606;49.154;9.280;2023-05-25T01:39:15;100087.34;;;9.45;100.00
13080;BME280;6606;49.154;9.280;2023-05-25T01:41:57;100092.94;;;9.59;100.00
13080;BME280;6606;49.154;9.280;2023-05-25T01:44:39;100097.31;;;9.60;100.00
13080;BME280;6606;49.154;9.280;2023-05-25T01:50:23;100092.69;;;9.65;100.00
13080;BME280;6606;49.154;9.280;2023-05-25T01:53:09;100089.94;;;9.68;100.00
13080;BME280;6606;49.154;9.280;2023-05-25T01:55:58;100100.34;;;9.73;100.00
13080;BME280;6606;49.154;9.280;2023-05-25T01:58:44;100089.63;;;9.76;100.00
13080;BME280;6606;49.154;9.280;2023-05-25T02:01:27;100085.22;;;9.77;100.00
13080;BME280;6606;49.154;9.280;2023-05-25T02:04:10;100085.00;;;9.81;100.00
13080;BME280;6606;49.154;9.280;2023-05-25T02:06:52;100092.09;;;9.81;100.00
13080;BME280;6606;49.154;9.280;2023-05-25T02:09:34;100093.16;;;9.77;100.00
13080;BME280;6606;49.154;9.280;2023-05-25T02:12:17;100094.81;;;9.79;100.00
13080;BME280;6606;49.154;9.280;2023-05-25T02:14:59;100090.41;;;9.78;100.00
13080;BME280;6606;49.154;9.280;2023-05-25T02:17:40;100085.94;;;9.80;100.00
13080;BME280;6606;49.154;9.280;2023-05-25T02:20:22;100080.81;;;9.76;100.00
13080;BME280;6606;49.154;9.280;2023-05-25T02:23:04;100078.31;;;9.73;100.00
13080;BME280;6606;49.154;9.280;2023-05-25T02:25:46;100074.78;;;9.72;100.00
13080;BME280;6606;49.154;9.280;2023-05-25T02:28:29;100076.81;;;9.65;100.00
13080;BME280;6606;49.154;9.280;2023-05-25T02:31:11;100076.03;;;9.63;100.00
13080;BME280;6606;49.154;9.280;2023-05-25T02:33:54;100076.72;;;9.68;100.00
13080;BME280;6606;49.154;9.280;2023-05-25T02:36:35;100077.63;;;9.67;100.00
13080;BME280;6606;49.154;9.280;2023-05-25T02:39:19;100084.03;;;9.62;100.00
13080;BME280;6606;49.154;9.280;2023-05-25T02:42:01;100085.81;;;9.61;100.00
13080;BME280;6606;49.154;9.280;2023-05-25T02:44:44;100088.47;;;9.61;100.00
13080;BME280;6606;49.154;9.280;2023-05-25T02:47:28;100098.09;;;9.62;100.00
13080;BME280;6606;49.154;9.280;2023-05-25T02:50:10;100092.94;;;9.59;100.00
13080;BME280;6606;49.154;9.280;2023-05-25T02:52:57;100100.56;;;9.45;100.00
13080;BME280;6606;49.154;9.280;2023-05-25T02:55:39;100097.00;;;9.46;100.00
13080;BME280;6606;49.154;9.280;2023-05-25T02:58:25;100094.34;;;9.46;100.00
13080;BME280;6606;49.154;9.280;2023-05-25T03:01:20;100093.78;;;9.38;100.00
13080;BME280;6606;49.154;9.280;2023-05-25T03:04:07;100088.63;;;9.35;100.00
13080;BME280;6606;49.154;9.280;2023-05-25T03:06:51;100094.88;;;9.32;100.00
13080;BME280;6606;49.154;9.280;2023-05-25T03:09:33;100097.38;;;9.37;100.00
13080;BME280;6606;49.154;9.280;2023-05-25T03:12:16;100103.56;;;9.36;100.00
13080;BME280;6606;49.154;9.280;2023-05-25T03:14:58;100102.88;;;9.31;100.00
13080;BME280;6606;49.154;9.280;2023-05-25T03:17:41;100107.81;;;9.40;100.00
13080;BME280;6606;49.154;9.280;2023-05-25T03:20:23;100108.03;;;9.34;100.00
13080;BME280;6606;49.154;9.280;2023-05-25T03:23:06;100108.66;;;9.18;100.00
13080;BME280;6606;49.154;9.280;2023-05-25T03:25:48;100115.75;;;9.16;100.00
13080;BME280;6606;49.154;9.280;2023-05-25T03:28:31;100114.78;;;9.19;100.00
13080;BME280;6606;49.154;9.280;2023-05-25T03:31:12;100111.03;;;9.24;100.00
13080;BME280;6606;49.154;9.280;2023-05-25T03:33:55;100119.09;;;9.21;100.00
13080;BME280;6606;49.154;9.280;2023-05-25T03:36:40;100122.66;;;9.20;100.00
13080;BME280;6606;49.154;9.280;2023-05-25T03:39:25;100123.47;;;9.22;100.00
13080;BME280;6606;49.154;9.280;2023-05-25T03:42:09;100127.78;;;9.25;100.00
13080;BME280;6606;49.154;9.280;2023-05-25T03:44:52;100123.53;;;9.21;100.00
13080;BME280;6606;49.154;9.280;2023-05-25T03:47:34;100127.03;;;9.21;100.00
13080;BME280;6606;49.154;9.280;2023-05-25T03:50:18;100133.72;;;9.32;100.00
13080;BME280;6606;49.154;9.280;2023-05-25T03:53:01;100132.91;;;9.30;100.00
13080;BME280;6606;49.154;9.280;2023-05-25T03:55:42;100142.22;;;9.40;100.00
13080;BME280;6606;49.154;9.280;2023-05-25T03:58:25;100148.19;;;9.45;100.00
13080;BME280;6606;49.154;9.280;2023-05-25T04:01:07;100155.84;;;9.53;100.00
13080;BME280;6606;49.154;9.280;2023-05-25T04:03:50;100148.28;;;9.42;100.00
13080;BME280;6606;49.154;9.280;2023-05-25T04:06:33;100145.34;;;9.50;100.00
13080;BME280;6606;49.154;9.280;2023-05-25T04:09:16;100148.69;;;9.55;100.00
13080;BME280;6606;49.154;9.280;2023-05-25T04:11:58;100154.78;;;9.57;100.00
13080;BME280;6606;49.154;9.280;2023-05-25T04:14:41;100150.34;;;9.57;100.00
13080;BME280;6606;49.154;9.280;2023-05-25T04:17:23;100158.94;;;9.64;100.00
13080;BME280;6606;49.154;9.280;2023-05-25T04:20:07;100159.66;;;9.67;100.00
13080;BME280;6606;49.154;9.280;2023-05-25T04:22:50;100157.88;;;9.68;100.00
13080;BME280;6606;49.154;9.280;2023-05-25T04:25:32;100168.25;;;9.51;100.00
13080;BME280;6606;49.154;9.280;2023-05-25T04:28:13;100165.25;;;9.60;100.00
13080;BME280;6606;49.154;9.280;2023-05-25T04:31:04;100159.06;;;9.83;100.00
13080;BME280;6606;49.154;9.280;2023-05-25T04:33:55;100162.53;;;9.85;100.00
13080;BME280;6606;49.154;9.280;2023-05-25T04:36:43;100156.31;;;9.86;100.00
13080;BME280;6606;49.154;9.280;2023-05-25T04:39:29;100162.53;;;9.85;100.00
13080;BME280;6606;49.154;9.280;2023-05-25T04:42:11;100156.84;;;9.72;100.00
13080;BME280;6606;49.154;9.280;2023-05-25T04:44:53;100159.94;;;9.83;100.00
13080;BME280;6606;49.154;9.280;2023-05-25T04:47:37;100159.88;;;9.85;100.00
13080;BME280;6606;49.154;9.280;2023-05-25T04:50:20;100170.00;;;9.74;100.00
13080;BME280;6606;49.154;9.280;2023-05-25T04:53:02;100161.13;;;9.98;100.00
13080;BME280;6606;49.154;9.280;2023-05-25T04:55:45;100167.31;;;9.97;100.00
13080;BME280;6606;49.154;9.280;2023-05-25T04:58:28;100172.63;;;9.97;100.00
13080;BME280;6606;49.154;9.280;2023-05-25T05:01:10;100169.28;;;9.92;100.00
13080;BME280;6606;49.154;9.280;2023-05-25T05:03:52;100169.75;;;10.03;100.00
13080;BME280;6606;49.154;9.280;2023-05-25T05:06:34;100170.31;;;10.11;100.00
13080;BME280;6606;49.154;9.280;2023-05-25T05:09:17;100183.03;;;10.02;100.00
13080;BME280;6606;49.154;9.280;2023-05-25T05:12:00;100191.97;;;10.21;100.00
13080;BME280;6606;49.154;9.280;2023-05-25T05:14:44;100197.38;;;10.18;100.00
13080;BME280;6606;49.154;9.280;2023-05-25T05:17:26;100192.50;;;10.31;100.00
13080;BME280;6606;49.154;9.280;2023-05-25T05:20:10;100186.69;;;10.43;100.00
13080;BME280;6606;49.154;9.280;2023-05-25T05:22:52;100194.03;;;10.37;100.00
13080;BME280;6606;49.154;9.280;2023-05-25T05:25:34;100193.22;;;10.34;100.00
13080;BME280;6606;49.154;9.280;2023-05-25T05:28:19;100195.56;;;10.42;100.00
13080;BME280;6606;49.154;9.280;2023-05-25T05:31:00;100195.56;;;10.42;100.00
13080;BME280;6606;49.154;9.280;2023-05-25T05:33:42;100193.97;;;10.38;100.00
13080;BME280;6606;49.154;9.280;2023-05-25T05:36:26;100199.72;;;10.70;100.00
13080;BME280;6606;49.154;9.280;2023-05-25T05:39:10;100210.28;;;10.49;100.00
13080;BME280;6606;49.154;9.280;2023-05-25T05:41:54;100204.88;;;10.73;100.00
13080;BME280;6606;49.154;9.280;2023-05-25T05:44:37;100205.47;;;10.79;100.00
13080;BME280;6606;49.154;9.280;2023-05-25T05:47:21;100206.94;;;10.87;100.00
13080;BME280;6606;49.154;9.280;2023-05-25T05:50:03;100192.78;;;10.88;100.00
13080;BME280;6606;49.154;9.280;2023-05-25T05:52:47;100208.75;;;11.07;100.00
13080;BME280;6606;49.154;9.280;2023-05-25T05:55:29;100213.09;;;11.28;100.00
13080;BME280;6606;49.154;9.280;2023-05-25T05:58:11;100218.72;;;11.41;100.00
13080;BME280;6606;49.154;9.280;2023-05-25T06:00:55;100219.81;;;11.56;100.00
13080;BME280;6606;49.154;9.280;2023-05-25T06:03:37;100218.97;;;11.74;100.00
13080;BME280;6606;49.154;9.280;2023-05-25T06:06:19;100225.41;;;11.89;100.00
13080;BME280;6606;49.154;9.280;2023-05-25T06:09:01;100223.81;;;12.04;100.00
13080;BME280;6606;49.154;9.280;2023-05-25T06:11:46;100234.16;;;12.10;100.00
13080;BME280;6606;49.154;9.280;2023-05-25T06:14:28;100227.09;;;12.09;100.00
13080;BME280;6606;49.154;9.280;2023-05-25T06:17:14;100235.84;;;12.30;100.00
13080;BME280;6606;49.154;9.280;2023-05-25T06:19:56;100231.75;;;12.59;100.00
13080;BME280;6606;49.154;9.280;2023-05-25T06:22:38;100223.34;;;12.68;100.00
13080;BME280;6606;49.154;9.280;2023-05-25T06:25:20;100230.41;;;12.87;100.00
13080;BME280;6606;49.154;9.280;2023-05-25T06:28:02;100228.88;;;13.33;100.00
13080;BME280;6606;49.154;9.280;2023-05-25T06:30:44;100240.09;;;13.40;100.00
13080;BME280;6606;49.154;9.280;2023-05-25T06:33:27;100239.59;;;13.49;100.00
13080;BME280;6606;49.154;9.280;2023-05-25T06:36:09;100241.50;;;13.47;100.00
13080;BME280;6606;49.154;9.280;2023-05-25T06:38:54;100252.03;;;13.66;100.00
13080;BME280;6606;49.154;9.280;2023-05-25T06:41:37;100248.53;;;13.48;100.00
13080;BME280;6606;49.154;9.280;2023-05-25T06:44:20;100244.09;;;13.64;100.00
13080;BME280;6606;49.154;9.280;2023-05-25T06:47:01;100248.09;;;13.89;100.00
13080;BME280;6606;49.154;9.280;2023-05-25T06:49:46;100252.41;;;13.92;100.00
13080;BME280;6606;49.154;9.280;2023-05-25T06:52:27;100243.53;;;13.91;100.00
13080;BME280;6606;49.154;9.280;2023-05-25T06:55:10;100235.75;;;14.20;100.00
13080;BME280;6606;49.154;9.280;2023-05-25T06:57:51;100237.97;;;14.43;100.00
13080;BME280;6606;49.154;9.280;2023-05-25T07:00:33;100236.09;;;14.14;100.00
13080;BME280;6606;49.154;9.280;2023-05-25T07:03:15;100231.75;;;14.75;100.00
13080;BME280;6606;49.154;9.280;2023-05-25T07:05:58;100239.72;;;17.02;100.00
13080;BME280;6606;49.154;9.280;2023-05-25T07:08:40;100226.50;;;19.22;74.45
13080;BME280;6606;49.154;9.280;2023-05-25T07:11:22;100223.84;;;21.62;58.69
13080;BME280;6606;49.154;9.280;2023-05-25T07:14:03;100213.06;;;22.81;53.25
13080;BME280;6606;49.154;9.280;2023-05-25T07:16:45;100210.94;;;24.72;47.44
13080;BME280;6606;49.154;9.280;2023-05-25T07:19:27;100213.59;;;24.36;44.95
13080;BME280;6606;49.154;9.280;2023-05-25T07:22:10;100202.53;;;25.79;44.23
13080;BME280;6606;49.154;9.280;2023-05-25T07:24:52;100200.75;;;25.54;40.48
13080;BME280;6606;49.154;9.280;2023-05-25T07:27:33;100208.50;;;25.05;40.19
13080;BME280;6606;49.154;9.280;2023-05-25T07:30:15;100202.50;;;25.71;38.81
13080;BME280;6606;49.154;9.280;2023-05-25T07:32:57;100210.94;;;24.26;42.34
13080;BME280;6606;49.154;9.280;2023-05-25T07:35:39;100206.81;;;24.50;40.81
13080;BME280;6606;49.154;9.280;2023-05-25T07:38:22;100201.03;;;26.19;38.77
13080;BME280;6606;49.154;9.280;2023-05-25T07:41:04;100196.97;;;26.15;38.11
13080;BME280;6606;49.154;9.280;2023-05-25T07:43:45;100203.53;;;26.55;37.12
13080;BME280;6606;49.154;9.280;2023-05-25T07:46:27;100202.19;;;27.25;35.81
13080;BME280;6606;49.154;9.280;2023-05-25T07:49:09;100206.63;;;26.68;36.30
13080;BME280;6606;49.154;9.280;2023-05-25T07:51:55;100207.47;;;27.02;35.97
13080;BME280;6606;49.154;9.280;2023-05-25T07:54:38;100205.09;;;26.90;35.19
13080;BME280;6606;49.154;9.280;2023-05-25T07:57:19;100209.91;;;26.38;35.87
13080;BME280;6606;49.154;9.280;2023-05-25T08:00:02;100214.88;;;25.92;37.18
13080;BME280;6606;49.154;9.280;2023-05-25T08:02:54;100209.13;;;24.45;39.96
13080;BME280;6606;49.154;9.280;2023-05-25T08:05:36;100211.09;;;23.97;41.48
13080;BME280;6606;49.154;9.280;2023-05-25T08:08:17;100217.00;;;24.10;41.20
13080;BME280;6606;49.154;9.280;2023-05-25T08:11:01;100213.56;;;23.90;42.64
13080;BME280;6606;49.154;9.280;2023-05-25T08:13:43;100211.94;;;24.89;40.12
13080;BME280;6606;49.154;9.280;2023-05-25T08:16:25;100205.44;;;25.43;38.92
13080;BME280;6606;49.154;9.280;2023-05-25T08:19:06;100208.06;;;24.91;41.14
13080;BME280;6606;49.154;9.280;2023-05-25T08:21:48;100201.72;;;26.21;38.37
13080;BME280;6606;49.154;9.280;2023-05-25T08:24:30;100204.19;;;24.94;41.78
13080;BME280;6606;49.154;9.280;2023-05-25T08:27:13;100198.09;;;26.63;38.45
13080;BME280;6606;49.154;9.280;2023-05-25T08:29:55;100203.22;;;26.07;38.19
13080;BME280;6606;49.154;9.280;2023-05-25T08:32:37;100211.47;;;25.37;38.19
13080;BME280;6606;49.154;9.280;2023-05-25T08:35:19;100200.28;;;25.66;38.93
13080;BME280;6606;49.154;9.280;2023-05-25T08:38:00;100196.50;;;26.28;37.75
13080;BME280;6606;49.154;9.280;2023-05-25T08:40:44;100205.59;;;25.76;37.75
13080;BME280;6606;49.154;9.280;2023-05-25T08:43:27;100210.75;;;24.55;39.54
13080;BME280;6606;49.154;9.280;2023-05-25T08:46:08;100214.81;;;23.96;42.72
13080;BME280;6606;49.154;9.280;2023-05-25T08:48:52;100217.53;;;22.23;47.50
13080;BME280;6606;49.154;9.280;2023-05-25T08:51:36;100222.16;;;20.66;57.64
13080;BME280;6606;49.154;9.280;2023-05-25T08:54:23;100221.09;;;19.91;65.03
13080;BME280;6606;49.154;9.280;2023-05-25T08:57:11;100216.00;;;20.31;65.02
13080;BME280;6606;49.154;9.280;2023-05-25T09:00:01;100221.81;;;19.82;65.76
13080;BME280;6606;49.154;9.280;2023-05-25T09:02:49;100215.94;;;19.99;72.40
13080;BME280;6606;49.154;9.280;2023-05-25T09:05:35;100207.84;;;20.10;72.91
13080;BME280;6606;49.154;9.280;2023-05-25T09:08:17;100217.34;;;20.26;67.44
13080;BME280;6606;49.154;9.280;2023-05-25T09:11:01;100215.94;;;19.88;68.29
13080;BME280;6606;49.154;9.280;2023-05-25T09:13:43;100208.97;;;20.40;68.81
13080;BME280;6606;49.154;9.280;2023-05-25T09:16:26;100221.38;;;20.31;67.45
13080;BME280;6606;49.154;9.280;2023-05-25T09:19:08;100213.66;;;20.27;70.39
13080;BME280;6606;49.154;9.280;2023-05-25T09:21:50;100210.34;;;20.46;67.26
13080;BME280;6606;49.154;9.280;2023-05-25T09:24:32;100199.38;;;20.70;68.73
13080;BME280;6606;49.154;9.280;2023-05-25T09:27:16;100205.25;;;20.63;65.91
13080;BME280;6606;49.154;9.280;2023-05-25T09:29:58;100206.72;;;20.68;64.94
13080;BME280;6606;49.154;9.280;2023-05-25T09:32:42;100209.78;;;20.08;68.52
13080;BME280;6606;49.154;9.280;2023-05-25T09:35:24;100205.72;;;20.69;73.53
13080;BME280;6606;49.154;9.280;2023-05-25T09:38:06;100199.34;;;21.23;64.32
13080;BME280;6606;49.154;9.280;2023-05-25T09:40:48;100217.09;;;21.25;63.30
13080;BME280;6606;49.154;9.280;2023-05-25T09:43:30;100203.84;;;21.43;59.72
13080;BME280;6606;49.154;9.280;2023-05-25T09:46:12;100208.19;;;21.14;63.52
13080;BME280;6606;49.154;9.280;2023-05-25T09:48:55;100211.81;;;21.03;66.72
13080;BME280;6606;49.154;9.280;2023-05-25T09:51:37;100200.38;;;21.32;63.17
13080;BME280;6606;49.154;9.280;2023-05-25T09:54:21;100206.22;;;21.16;62.38
13080;BME280;6606;49.154;9.280;2023-05-25T09:57:04;100208.16;;;21.25;65.67
13080;BME280;6606;49.154;9.280;2023-05-25T09:59:46;100204.09;;;21.61;61.60
13080;BME280;6606;49.154;9.280;2023-05-25T10:02:28;100200.66;;;21.59;63.13
13080;BME280;6606;49.154;9.280;2023-05-25T10:05:11;100232.19;;;21.17;60.88
13080;BME280;6606;49.154;9.280;2023-05-25T10:07:53;100213.47;;;21.15;66.47
13080;BME280;6606;49.154;9.280;2023-05-25T10:10:36;100217.16;;;20.93;66.18
13080;BME280;6606;49.154;9.280;2023-05-25T10:13:20;100216.75;;;21.19;67.28
13080;BME280;6606;49.154;9.280;2023-05-25T10:16:03;100212.59;;;21.87;64.60
13080;BME280;6606;49.154;9.280;2023-05-25T10:18:47;100210.78;;;21.67;59.60
13080;BME280;6606;49.154;9.280;2023-05-25T10:21:35;100200.91;;;21.77;59.82
13080;BME280;6606;49.154;9.280;2023-05-25T10:24:24;100207.75;;;21.81;60.34
13080;BME280;6606;49.154;9.280;2023-05-25T10:27:10;100200.56;;;21.61;61.51
13080;BME280;6606;49.154;9.280;2023-05-25T10:29:54;100207.91;;;21.59;62.97
13080;BME280;6606;49.154;9.280;2023-05-25T10:32:37;100202.00;;;21.65;63.21
13080;BME280;6606;49.154;9.280;2023-05-25T10:35:19;100207.84;;;21.39;63.59
13080;BME280;6606;49.154;9.280;2023-05-25T10:38:03;100206.16;;;21.48;62.61
13080;BME280;6606;49.154;9.280;2023-05-25T10:40:46;100201.28;;;21.63;65.12
13080;BME280;6606;49.154;9.280;2023-05-25T10:43:30;100184.81;;;22.16;62.44
13080;BME280;6606;49.154;9.280;2023-05-25T10:46:12;100194.41;;;21.89;60.18
13080;BME280;6606;49.154;9.280;2023-05-25T10:48:54;100195.69;;;22.35;60.40
13080;BME280;6606;49.154;9.280;2023-05-25T10:51:41;100185.72;;;22.26;59.25
13080;BME280;6606;49.154;9.280;2023-05-25T10:54:27;100192.84;;;21.87;58.83
13080;BME280;6606;49.154;9.280;2023-05-25T10:57:10;100200.78;;;22.19;56.60
13080;BME280;6606;49.154;9.280;2023-05-25T10:59:54;100201.63;;;22.20;60.64
13080;BME280;6606;49.154;9.280;2023-05-25T11:02:48;100195.91;;;22.13;61.13
13080;BME280;6606;49.154;9.280;2023-05-25T11:05:35;100194.84;;;22.45;62.39
13080;BME280;6606;49.154;9.280;2023-05-25T11:08:20;100195.44;;;22.58;60.26
13080;BME280;6606;49.154;9.280;2023-05-25T11:11:04;100186.59;;;22.36;68.63
13080;BME280;6606;49.154;9.280;2023-05-25T11:13:46;100189.16;;;22.87;55.88
13080;BME280;6606;49.154;9.280;2023-05-25T11:16:31;100196.28;;;22.78;54.56
13080;BME280;6606;49.154;9.280;2023-05-25T11:19:15;100204.53;;;22.76;59.12
13080;BME280;6606;49.154;9.280;2023-05-25T11:22:11;100201.28;;;22.63;63.52
13080;BME280;6606;49.154;9.280;2023-05-25T11:24:56;100194.88;;;23.03;63.05
13080;BME280;6606;49.154;9.280;2023-05-25T11:27:44;100190.31;;;23.03;59.27
13080;BME280;6606;49.154;9.280;2023-05-25T11:30:27;100186.03;;;23.01;52.10
13080;BME280;6606;49.154;9.280;2023-05-25T11:33:08;100192.00;;;22.95;54.84
13080;BME280;6606;49.154;9.280;2023-05-25T11:35:50;100177.81;;;23.02;55.71
13080;BME280;6606;49.154;9.280;2023-05-25T11:38:34;100185.19;;;22.71;56.43
13080;BME280;6606;49.154;9.280;2023-05-25T11:41:17;100179.75;;;22.91;61.55
13080;BME280;6606;49.154;9.280;2023-05-25T11:44:04;100181.06;;;22.87;56.57
13080;BME280;6606;49.154;9.280;2023-05-25T11:46:46;100186.47;;;22.87;56.44
13080;BME280;6606;49.154;9.280;2023-05-25T11:49:27;100191.88;;;22.67;58.37
13080;BME280;6606;49.154;9.280;2023-05-25T11:52:09;100178.34;;;22.87;59.75
13080;BME280;6606;49.154;9.280;2023-05-25T11:54:51;100182.63;;;22.89;58.06
13080;BME280;6606;49.154;9.280;2023-05-25T11:57:33;100182.19;;;22.84;54.91
13080;BME280;6606;49.154;9.280;2023-05-25T12:00:25;100181.63;;;22.90;65.47
13080;BME280;6606;49.154;9.280;2023-05-25T12:03:07;100175.03;;;23.32;51.71
13080;BME280;6606;49.154;9.280;2023-05-25T12:05:49;100166.63;;;23.35;55.83
13080;BME280;6606;49.154;9.280;2023-05-25T12:08:31;100179.19;;;23.16;54.63
13080;BME280;6606;49.154;9.280;2023-05-25T12:11:13;100175.44;;;23.37;54.87
13080;BME280;6606;49.154;9.280;2023-05-25T12:13:55;100166.31;;;23.38;52.42
13080;BME280;6606;49.154;9.280;2023-05-25T12:16:38;100160.50;;;23.60;56.82
13080;BME280;6606;49.154;9.280;2023-05-25T12:19:20;100173.00;;;23.81;52.73
13080;BME280;6606;49.154;9.280;2023-05-25T12:22:03;100170.69;;;23.48;55.00
13080;BME280;6606;49.154;9.280;2023-05-25T12:24:44;100168.78;;;23.21;56.29
13080;BME280;6606;49.154;9.280;2023-05-25T12:27:26;100160.88;;;23.47;54.50
13080;BME280;6606;49.154;9.280;2023-05-25T12:30:09;100153.19;;;23.70;52.14
13080;BME280;6606;49.154;9.280;2023-05-25T12:32:57;100148.72;;;23.24;55.05
13080;BME280;6606;49.154;9.280;2023-05-25T12:35:44;100165.38;;;23.57;56.01
13080;BME280;6606;49.154;9.280;2023-05-25T12:38:26;100149.97;;;23.67;55.29
13080;BME280;6606;49.154;9.280;2023-05-25T12:41:08;100151.03;;;24.11;51.99
13080;BME280;6606;49.154;9.280;2023-05-25T12:43:50;100156.22;;;23.67;52.59
13080;BME280;6606;49.154;9.280;2023-05-25T12:46:31;100155.88;;;23.90;50.82
13080;BME280;6606;49.154;9.280;2023-05-25T12:49:25;100157.66;;;23.72;53.24
13080;BME280;6606;49.154;9.280;2023-05-25T12:52:08;100165.16;;;24.05;54.29
13080;BME280;6606;49.154;9.280;2023-05-25T12:54:50;100167.78;;;23.97;52.74
13080;BME280;6606;49.154;9.280;2023-05-25T12:57:33;100163.22;;;23.98;50.88
13080;BME280;6606;49.154;9.280;2023-05-25T13:00:15;100159.06;;;24.03;52.93
13080;BME280;6606;49.154;9.280;2023-05-25T13:02:57;100158.56;;;23.90;51.50
13080;BME280;6606;49.154;9.280;2023-05-25T13:05:40;100156.34;;;24.03;53.71
13080;BME280;6606;49.154;9.280;2023-05-25T13:08:21;100161.41;;;24.34;54.10
13080;BME280;6606;49.154;9.280;2023-05-25T13:11:03;100161.31;;;24.26;54.17
13080;BME280;6606;49.154;9.280;2023-05-25T13:13:46;100164.16;;;24.06;52.45
13080;BME280;6606;49.154;9.280;2023-05-25T13:16:29;100145.47;;;23.85;52.03
13080;BME280;6606;49.154;9.280;2023-05-25T13:19:13;100142.69;;;23.77;52.78
13080;BME280;6606;49.154;9.280;2023-05-25T13:21:56;100154.84;;;24.19;52.64
13080;BME280;6606;49.154;9.280;2023-05-25T13:24:38;100150.13;;;24.56;50.21
13080;BME280;6606;49.154;9.280;2023-05-25T13:27:20;100147.88;;;24.70;46.90
13080;BME280;6606;49.154;9.280;2023-05-25T13:30:05;100144.66;;;24.48;47.69
13080;BME280;6606;49.154;9.280;2023-05-25T13:32:48;100143.31;;;24.52;49.81
13080;BME280;6606;49.154;9.280;2023-05-25T13:35:30;100145.19;;;24.70;48.22
13080;BME280;6606;49.154;9.280;2023-05-25T13:38:22;100150.63;;;24.42;51.16
13080;BME280;6606;49.154;9.280;2023-05-25T13:41:04;100150.03;;;24.84;49.63
13080;BME280;6606;49.154;9.280;2023-05-25T13:43:46;100139.19;;;25.10;48.10
13080;BME280;6606;49.154;9.280;2023-05-25T13:46:27;100136.94;;;24.44;46.07
13080;BME280;6606;49.154;9.280;2023-05-25T13:49:09;100139.13;;;24.40;49.43
13080;BME280;6606;49.154;9.280;2023-05-25T13:51:54;100140.34;;;24.82;49.82
13080;BME280;6606;49.154;9.280;2023-05-25T13:54:37;100135.19;;;24.96;47.51
13080;BME280;6606;49.154;9.280;2023-05-25T13:57:19;100135.75;;;24.82;47.14
13080;BME280;6606;49.154;9.280;2023-05-25T14:00:01;100130.03;;;24.85;48.15
13080;BME280;6606;49.154;9.280;2023-05-25T14:02:47;100130.78;;;24.69;48.75
13080;BME280;6606;49.154;9.280;2023-05-25T14:05:29;100129.75;;;24.52;47.85
13080;BME280;6606;49.154;9.280;2023-05-25T14:08:11;100132.63;;;24.33;48.04
13080;BME280;6606;49.154;9.280;2023-05-25T14:10:55;100132.06;;;24.65;47.30
13080;BME280;6606;49.154;9.280;2023-05-25T14:13:38;100141.50;;;24.79;47.22
13080;BME280;6606;49.154;9.280;2023-05-25T14:16:19;100140.34;;;24.82;48.22
13080;BME280;6606;49.154;9.280;2023-05-25T14:19:01;100123.41;;;24.79;48.33
13080;BME280;6606;49.154;9.280;2023-05-25T14:21:44;100122.06;;;25.10;46.14
13080;BME280;6606;49.154;9.280;2023-05-25T14:24:25;100124.47;;;24.69;45.19